Terminal Aerodrome Forecast
Issued by NWS

Home | Current Version | Previous Version | Text Only | Print | Product List | Glossary On
Versions: 1 2 3 4 5 6 7 8 9 10 11 12 13 14 15 16 17 18 19 20 21 22 23
031
FTUS45 KGJT 190536
TAFCNY
TAF
KCNY 190536Z 1906/2006 21019G27KT P6SM FEW090 SCT250
     FM191700 22020G35KT P6SM VCSH SCT090 BKN100
     FM200000 24015G23KT P6SM BKN070 BKN080=

USA.gov is the U.S. government's official web portal to all federal, state and local government web resources and services.